• Join FlightAware (Why Join?)
  • Login
  • US Flag 
09:10AM EDT


 

Airport Tracker/Info


-or-


 

Live Flight TrackerFlight Track Log ✈ UPS1307 ✈ 10-Jul-2014 ✈ KATL - KPHL

Flight Track Log - Related Links

Times and Time Zones

All times are in EDT time to prevent confusion due to time zone crossing. See the UPS1307 flight status page for this flight to view local times or setup timezone preferences in your user account.

Time Position Orientation Groundspeed Altitude Reporting Facility
EDT Latitude Longitude Course Direction KTS MPH feet Rate Location/Type
10:36PM 33.6500 -84.4500 54° Northeast 158 182 2,600  Level Atlanta TRACON
10:37PM 33.6667 -84.5000 292° West 210 242 4,300 2,100 Climbing Atlanta TRACON
10:38PM 33.7167 -84.5833 306° West 279 321 6,900 2,160 Climbing Atlanta TRACON
10:40PM 33.8144 -84.4839 40° Northeast 268 308 11,400 1,860 Climbing Atlanta Center
10:41PM 33.8125 -84.3589 91° East 331 381 12,800 1,680 Climbing Atlanta Center
10:42PM 33.8399 -83.8281 54° Northeast  Level FlightAware Approximate
10:42PM 33.8211 -84.2289 85° East 358 412 14,800  Level Atlanta Center
10:43PM 33.8506 -84.0889 76° East 391 450 16,800 1,740 Climbing Atlanta Center
10:44PM 33.8797 -83.9511 76° East 406 467 18,300 1,440 Climbing Atlanta Center
10:45PM 33.9067 -83.8086 77° East 420 483 19,700 1,320 Climbing Atlanta Center
10:46PM 33.9544 -83.6706 67° East 432 497 21,000 1,260 Climbing Atlanta Center
10:47PM 34.0333 -83.5500 52° Northeast 442 509 22,300 1,380 Climbing Atlanta Center
10:53PM 34.4932 -82.8152 53° Northeast 507 583 30,000 1,500 Climbing FlightAware ADS-B (KCDN)
10:55PM 34.6636 -82.5387 53° Northeast 499 574 33,700 1,740 Climbing FlightAware ADS-B (KCDN)
10:56PM 34.7475 -82.4024 53° Northeast 496 571 35,400 1,500 Climbing FlightAware ADS-B (KCDN)
10:57PM 34.8600 -82.2189 54° Northeast 489 563 37,400 1,260 Climbing FlightAware ADS-B (KCDN)
10:58PM 34.9011 -82.1504 54° Northeast 487 560 37,900 1,020 Climbing FlightAware ADS-B (KCDN)
10:58PM 34.9369 -82.0904 55° Northeast 482 555 38,400 900 Climbing FlightAware ADS-B (KDZJ)
10:59PM 34.9842 -82.0110 54° Northeast 488 562 38,900 480 Climbing FlightAware ADS-B (KCDN)
10:59PM 35.0317 -81.9300 55° Northeast 490 564 39,000  Climbing FlightAware ADS-B (KCDN)
11:01PM 35.1553 -81.6971 57° Northeast 500 575 39,000  Level FlightAware ADS-B (KINT)
11:04PM 35.3891 -81.2505 57° Northeast 499 574 39,000  Level FlightAware ADS-B (KINT)
11:05PM 35.4706 -81.0940 58° Northeast 497 572 39,000  Level FlightAware ADS-B (KINT)
11:06PM 35.5178 -81.0031 58° Northeast 497 572 39,000  Level FlightAware ADS-B (KINT)
11:07PM 35.5689 -80.9044 58° Northeast 497 572 39,000  Level FlightAware ADS-B (KINT)
11:07PM 35.6076 -80.8296 58° Northeast 497 572 39,000  Level FlightAware ADS-B (KINT)
11:08PM 35.6435 -80.7598 58° Northeast 497 572 39,000  Level FlightAware ADS-B (KINT)
11:08PM 35.6927 -80.6642 58° Northeast 498 573 39,000  Level FlightAware ADS-B (KINT)
11:09PM 35.7348 -80.5823 58° Northeast 498 573 39,000  Level FlightAware ADS-B (KINT)
11:10PM 35.7836 -80.4871 58° Northeast 499 574 39,000  Level FlightAware ADS-B (KINT)
11:10PM 35.8231 -80.4100 58° Northeast 500 575 39,000  Level FlightAware ADS-B (KINT)
11:11PM 35.8653 -80.3273 58° Northeast 502 578 39,000  Level FlightAware ADS-B (KINT)
11:11PM 35.9071 -80.2453 58° Northeast 503 579 39,000  Level FlightAware ADS-B (KINT)
11:12PM 35.9463 -80.1684 58° Northeast 505 581 39,000  Level FlightAware ADS-B (KINT)
11:12PM 35.9840 -80.0941 58° Northeast 506 582 39,000  Level FlightAware ADS-B (KINT)
11:13PM 36.0276 -80.0087 57° Northeast 505 581 39,000  Level FlightAware ADS-B (KINT)
11:14PM 36.0924 -79.8902 55° Northeast 505 581 39,000  Level FlightAware ADS-B (KINT)
11:14PM 36.1410 -79.8046 55° Northeast 506 582 39,000  Level FlightAware ADS-B (KINT)
11:15PM 36.2005 -79.6999 55° Northeast 506 582 39,000  Level FlightAware ADS-B (KINT)
11:16PM 36.2544 -79.6048 55° Northeast 507 583 39,000  Level FlightAware ADS-B (KINT)
11:16PM 36.3083 -79.5100 55° Northeast 509 586 39,000  Level FlightAware ADS-B (KINT)
11:17PM 36.3582 -79.4213 55° Northeast 511 588 39,000  Level FlightAware ADS-B (KINT)
11:18PM 36.4156 -79.3192 55° Northeast 512 589 39,000  Level FlightAware ADS-B (KINT)
11:18PM 36.4676 -79.2262 55° Northeast 514 592 39,000  Level FlightAware ADS-B (KINT)
11:19PM 36.5493 -79.0795 55° Northeast 517 595 39,000  Level FlightAware ADS-B (KINT)
11:25PM 37.0605 -78.2990 37° Northeast 517 595 39,000  Level FlightAware ADS-B (KCHO)
11:26PM 37.2050 -78.1603 37° Northeast 509 586 39,000  Level Washington Center
11:33PM 37.9031 -77.4095 48° Northeast 524 603 39,000  Level FlightAware ADS-B (KJYO)
11:33PM 37.9478 -77.3456 48° Northeast 524 603 39,000  Level FlightAware ADS-B (KJYO)
11:34PM 37.9991 -77.2725 48° Northeast 524 603 39,000  Level FlightAware ADS-B (KJYO)
11:34PM 38.0465 -77.2049 48° Northeast 524 603 39,000  Level FlightAware ADS-B (KJYO)
11:35PM 38.0800 -77.1570 48° Northeast 524 603 39,000 -360 Level FlightAware ADS-B (KJYO)
11:35PM 38.1331 -77.0808 48° Northeast 525 604 38,700 -2,220 Descending FlightAware ADS-B (KJYO)
11:36PM 38.2746 -76.8772 48° Northeast 530 610 34,800 -2,880 Descending FlightAware ADS-B (KDAA)
11:37PM 38.3598 -76.7536 48° Northeast 541 623 32,200 -3,240 Descending FlightAware ADS-B (KDAA)
11:38PM 38.4070 -76.6851 48° Northeast 540 621 30,600 -3,600 Descending FlightAware ADS-B (KDAA)
11:39PM 38.4942 -76.5579 48° Northeast 540 621 27,400 -3,300 Descending FlightAware ADS-B (KDAA)
11:42PM 38.8377 -76.0498 49° Northeast 491 565 15,500 -2,580 Descending FlightAware ADS-B (KDCA)
11:44PM 38.8788 -75.9179 72° East 418 481 14,800 -1,020 Descending FlightAware ADS-B (KDCA)
11:46PM 39.1348 -75.6706 North 352 405 11,600 -1,140 Descending FlightAware ADS-B (KDCA)
11:47PM 39.2347 -75.6589 North 316 364 10,400 -960 Descending FlightAware ADS-B (KDCA)
11:49PM 39.3201 -75.6227 32° Northeast 284 327 9,600 -1,080 Descending FlightAware ADS-B (KDCA)
11:50PM 39.3862 -75.5704 31° Northeast 284 327 8,200 -1,440 Descending FlightAware ADS-B (KDCA)
11:51PM 39.4517 -75.5188 32° Northeast 278 320 6,900 -1,560 Descending FlightAware ADS-B (KDCA)
11:52PM 39.5180 -75.4662 31° Northeast 274 315 5,200 -960 Descending FlightAware ADS-B (KPHL)
11:53PM 39.5919 -75.4083 31° Northeast 238 274 4,800 -360 Descending FlightAware ADS-B (KPHL)
11:54PM 39.6518 -75.3792 331° Northwest 194 223 4,500 -600 Descending FlightAware ADS-B (KPHL)
11:55PM 39.6920 -75.4177 321° Northwest 196 226 3,600 -900 Descending FlightAware ADS-B (KPHL)
11:56PM 39.7316 -75.4583 322° Northwest 194 223 2,800 -420 Descending FlightAware ADS-B (KPHL)
11:57PM 39.7831 -75.5007 337° Northwest 192 221 2,800 -60 Level FlightAware ADS-B (KPHL)
11:58PM 39.8044 -75.4897 49° Northeast 182 209 2,700 -540 Descending FlightAware ADS-B (KPHL)
11:59PM 39.8348 -75.4052 75° East 176 203 1,800 -900 Descending FlightAware ADS-B (KPHL)
12:00AM 39.8457 -75.3510 76° East 123 142 1,000 -720 Descending FlightAware ADS-B (KPHL)
12:01AM 39.8543 -75.3083 76° East 123 142 400 -600 Descending FlightAware ADS-B (KPHL)
12:02AM 39.8616 -75.2715 76° East 121 139 -480 Descending FlightAware ADS-B (KPHL)